sensor_id;sensor_type;location;lat;lon;timestamp;pressure;altitude;pressure_sealevel;temperature;humidity
58761;BME280;44529;47.464;19.014;2023-01-26T00:02:09;101038.91;;;2.64;94.86
58761;BME280;44529;47.464;19.014;2023-01-26T00:05:12;101041.09;;;2.67;94.81
58761;BME280;44529;47.464;19.014;2023-01-26T00:08:14;101036.13;;;2.70;94.19
58761;BME280;44529;47.464;19.014;2023-01-26T00:11:19;101036.16;;;2.59;95.15
58761;BME280;44529;47.464;19.014;2023-01-26T00:14:22;101030.81;;;2.59;95.58
58761;BME280;44529;47.464;19.014;2023-01-26T00:17:24;101030.31;;;2.62;95.79
58761;BME280;44529;47.464;19.014;2023-01-26T00:20:29;101030.31;;;2.62;95.50
58761;BME280;44529;47.464;19.014;2023-01-26T00:23:33;101023.13;;;2.62;95.52
58761;BME280;44529;47.464;19.014;2023-01-26T00:26:35;101022.56;;;2.60;95.73
58761;BME280;44529;47.464;19.014;2023-01-26T00:29:38;101024.75;;;2.63;95.69
58761;BME280;44529;47.464;19.014;2023-01-26T00:32:40;101024.59;;;2.70;95.76
58761;BME280;44529;47.464;19.014;2023-01-26T00:35:43;101019.47;;;2.52;96.49
58761;BME280;44529;47.464;19.014;2023-01-26T00:38:46;101017.13;;;2.55;95.76
58761;BME280;44529;47.464;19.014;2023-01-26T00:41:48;101018.75;;;2.56;95.25
58761;BME280;44529;47.464;19.014;2023-01-26T00:45:10;101019.22;;;2.53;95.48
58761;BME280;44529;47.464;19.014;2023-01-26T00:48:13;101020.34;;;2.57;95.78
58761;BME280;44529;47.464;19.014;2023-01-26T00:51:15;101019.91;;;2.60;95.46
58761;BME280;44529;47.464;19.014;2023-01-26T00:54:18;101008.88;;;2.57;95.47
58761;BME280;44529;47.464;19.014;2023-01-26T00:57:20;101004.34;;;2.57;95.88
58761;BME280;44529;47.464;19.014;2023-01-26T01:00:23;101014.22;;;2.57;96.30
58761;BME280;44529;47.464;19.014;2023-01-26T01:03:26;101002.31;;;2.48;97.89
58761;BME280;44529;47.464;19.014;2023-01-26T01:06:28;100999.06;;;2.46;98.80
58761;BME280;44529;47.464;19.014;2023-01-26T01:09:30;101004.97;;;2.48;98.16
58761;BME280;44529;47.464;19.014;2023-01-26T01:12:33;100997.62;;;2.55;97.42
58761;BME280;44529;47.464;19.014;2023-01-26T01:15:37;100997.25;;;2.63;97.13
58761;BME280;44529;47.464;19.014;2023-01-26T01:18:40;100997.72;;;2.60;96.84
58761;BME280;44529;47.464;19.014;2023-01-26T01:21:44;100993.66;;;2.57;96.85
58761;BME280;44529;47.464;19.014;2023-01-26T01:24:47;100997.06;;;2.53;97.57
58761;BME280;44529;47.464;19.014;2023-01-26T01:27:49;100991.12;;;2.51;98.79
58761;BME280;44529;47.464;19.014;2023-01-26T01:30:52;100982.19;;;2.57;97.83
58761;BME280;44529;47.464;19.014;2023-01-26T01:33:55;100985.09;;;2.55;98.07
58761;BME280;44529;47.464;19.014;2023-01-26T01:36:58;100982.66;;;2.54;98.25
58761;BME280;44529;47.464;19.014;2023-01-26T01:40:00;100981.06;;;2.53;98.79
58761;BME280;44529;47.464;19.014;2023-01-26T01:43:10;100980.66;;;2.61;98.26
58761;BME280;44529;47.464;19.014;2023-01-26T01:46:25;100974.41;;;2.55;97.85
58761;BME280;44529;47.464;19.014;2023-01-26T01:49:35;100973.59;;;2.55;97.86
58761;BME280;44529;47.464;19.014;2023-01-26T01:52:39;100967.06;;;2.62;98.22
58761;BME280;44529;47.464;19.014;2023-01-26T01:55:42;100966.81;;;2.64;97.10
58761;BME280;44529;47.464;19.014;2023-01-26T01:58:45;100967.88;;;2.63;97.16
58761;BME280;44529;47.464;19.014;2023-01-26T02:01:49;100965.44;;;2.61;97.60
58761;BME280;44529;47.464;19.014;2023-01-26T02:04:56;100960.34;;;2.60;97.62
58761;BME280;44529;47.464;19.014;2023-01-26T02:08:02;100952.97;;;2.50;98.69
58761;BME280;44529;47.464;19.014;2023-01-26T02:11:27;100950.62;;;2.54;97.59
58761;BME280;44529;47.464;19.014;2023-01-26T02:14:35;100951.44;;;2.54;97.40
58761;BME280;44529;47.464;19.014;2023-01-26T02:17:38;100944.97;;;2.50;97.49
58761;BME280;44529;47.464;19.014;2023-01-26T02:24:25;100936.09;;;2.61;95.45
58761;BME280;44529;47.464;19.014;2023-01-26T02:27:31;100936.72;;;2.52;95.22
58761;BME280;44529;47.464;19.014;2023-01-26T02:30:33;100933.00;;;2.53;95.24
58761;BME280;44529;47.464;19.014;2023-01-26T02:33:36;100932.03;;;2.59;93.88
58761;BME280;44529;47.464;19.014;2023-01-26T02:36:39;100920.97;;;2.67;93.09
58761;BME280;44529;47.464;19.014;2023-01-26T02:39:51;100915.06;;;2.65;92.46
58761;BME280;44529;47.464;19.014;2023-01-26T02:42:56;100911.34;;;2.66;92.18
58761;BME280;44529;47.464;19.014;2023-01-26T02:45:58;100908.31;;;2.62;91.37
58761;BME280;44529;47.464;19.014;2023-01-26T02:49:01;100900.06;;;2.64;91.57
58761;BME280;44529;47.464;19.014;2023-01-26T02:52:24;100895.47;;;2.59;91.27
58761;BME280;44529;47.464;19.014;2023-01-26T02:55:29;100888.75;;;2.57;90.06
58761;BME280;44529;47.464;19.014;2023-01-26T02:58:32;100887.31;;;2.66;89.03
58761;BME280;44529;47.464;19.014;2023-01-26T03:01:35;100881.88;;;2.61;88.76
58761;BME280;44529;47.464;19.014;2023-01-26T03:04:40;100884.56;;;2.61;88.66
58761;BME280;44529;47.464;19.014;2023-01-26T03:07:43;100873.94;;;2.49;89.04
58761;BME280;44529;47.464;19.014;2023-01-26T03:10:45;100873.47;;;2.52;88.92
58761;BME280;44529;47.464;19.014;2023-01-26T03:13:48;100872.19;;;2.55;89.68
58761;BME280;44529;47.464;19.014;2023-01-26T03:16:51;100869.66;;;2.48;89.55
58761;BME280;44529;47.464;19.014;2023-01-26T03:19:53;100870.22;;;2.50;89.66
58761;BME280;44529;47.464;19.014;2023-01-26T03:23:16;100870.47;;;2.49;90.55
58761;BME280;44529;47.464;19.014;2023-01-26T03:26:38;100865.22;;;2.54;89.17
58761;BME280;44529;47.464;19.014;2023-01-26T03:29:59;100866.38;;;2.58;88.59
58761;BME280;44529;47.464;19.014;2023-01-26T03:33:03;100856.66;;;2.52;89.25
58761;BME280;44529;47.464;19.014;2023-01-26T03:36:05;100848.31;;;2.48;89.42
58761;BME280;44529;47.464;19.014;2023-01-26T03:39:08;100851.63;;;2.55;88.33
58761;BME280;44529;47.464;19.014;2023-01-26T03:42:11;100843.87;;;2.54;89.36
58761;BME280;44529;47.464;19.014;2023-01-26T03:45:31;100843.47;;;2.45;89.76
58761;BME280;44529;47.464;19.014;2023-01-26T03:48:53;100838.44;;;2.49;89.49
58761;BME280;44529;47.464;19.014;2023-01-26T03:52:14;100839.59;;;2.53;89.36
58761;BME280;44529;47.464;19.014;2023-01-26T03:55:36;100832.03;;;2.50;89.24
58761;BME280;44529;47.464;19.014;2023-01-26T03:58:59;100835.31;;;2.52;88.50
58761;BME280;44529;47.464;19.014;2023-01-26T04:02:11;100831.25;;;2.66;87.88
58761;BME280;44529;47.464;19.014;2023-01-26T04:05:32;100825.81;;;2.61;88.09
58761;BME280;44529;47.464;19.014;2023-01-26T04:08:53;100828.16;;;2.57;88.57
58761;BME280;44529;47.464;19.014;2023-01-26T04:11:57;100824.38;;;2.53;88.20
58761;BME280;44529;47.464;19.014;2023-01-26T04:14:59;100822.25;;;2.55;88.21
58761;BME280;44529;47.464;19.014;2023-01-26T04:18:20;100825.44;;;2.52;89.13
58761;BME280;44529;47.464;19.014;2023-01-26T04:21:41;100817.47;;;2.57;88.57
58761;BME280;44529;47.464;19.014;2023-01-26T04:24:44;100809.41;;;2.52;89.24
58761;BME280;44529;47.464;19.014;2023-01-26T04:27:46;100811.84;;;2.54;89.36
58761;BME280;44529;47.464;19.014;2023-01-26T04:30:49;100816.66;;;2.57;88.46
58761;BME280;44529;47.464;19.014;2023-01-26T04:33:51;100805.69;;;2.53;88.54
58761;BME280;44529;47.464;19.014;2023-01-26T04:36:55;100809.09;;;2.49;89.95
58761;BME280;44529;47.464;19.014;2023-01-26T04:39:58;100812.00;;;2.47;89.49
58761;BME280;44529;47.464;19.014;2023-01-26T04:43:01;100804.88;;;2.53;89.76
58761;BME280;44529;47.464;19.014;2023-01-26T04:46:05;100800.19;;;2.60;87.88
58761;BME280;44529;47.464;19.014;2023-01-26T04:49:08;100806.31;;;2.60;87.71
58761;BME280;44529;47.464;19.014;2023-01-26T04:52:12;100802.44;;;2.68;87.68
58761;BME280;44529;47.464;19.014;2023-01-26T04:55:14;100800.31;;;2.70;87.10
58761;BME280;44529;47.464;19.014;2023-01-26T04:58:17;100794.34;;;2.63;87.44
58761;BME280;44529;47.464;19.014;2023-01-26T05:01:21;100787.72;;;2.49;88.27
58761;BME280;44529;47.464;19.014;2023-01-26T05:04:24;100801.00;;;2.60;87.83
58761;BME280;44529;47.464;19.014;2023-01-26T05:07:27;100800.19;;;2.60;87.28
58761;BME280;44529;47.464;19.014;2023-01-26T05:10:31;100800.00;;;2.66;87.28
58761;BME280;44529;47.464;19.014;2023-01-26T05:13:36;100793.88;;;2.66;86.81
58761;BME280;44529;47.464;19.014;2023-01-26T05:16:38;100797.34;;;2.66;86.33
58761;BME280;44529;47.464;19.014;2023-01-26T05:19:41;100791.91;;;2.78;84.87
58761;BME280;44529;47.464;19.014;2023-01-26T05:22:44;100794.88;;;2.82;84.19
58761;BME280;44529;47.464;19.014;2023-01-26T05:25:50;100792.47;;;2.80;84.03
58761;BME280;44529;47.464;19.014;2023-01-26T05:28:52;100791.09;;;2.78;84.54
58761;BME280;44529;47.464;19.014;2023-01-26T05:31:54;100799.28;;;2.71;83.79
58761;BME280;44529;47.464;19.014;2023-01-26T05:34:57;100795.94;;;2.64;85.20
58761;BME280;44529;47.464;19.014;2023-01-26T05:38:00;100793.28;;;2.64;85.66
58761;BME280;44529;47.464;19.014;2023-01-26T05:41:05;100795.47;;;2.67;85.31
58761;BME280;44529;47.464;19.014;2023-01-26T05:44:11;100795.16;;;2.63;85.58
58761;BME280;44529;47.464;19.014;2023-01-26T05:47:14;100804.94;;;2.75;85.65
58761;BME280;44529;47.464;19.014;2023-01-26T05:50:17;100806.31;;;2.77;85.45
58761;BME280;44529;47.464;19.014;2023-01-26T05:53:40;100803.94;;;2.81;85.91
58761;BME280;44529;47.464;19.014;2023-01-26T05:56:42;100807.94;;;2.78;86.59
58761;BME280;44529;47.464;19.014;2023-01-26T05:59:45;100802.59;;;2.78;85.71
58761;BME280;44529;47.464;19.014;2023-01-26T06:02:47;100809.53;;;2.79;85.71
58761;BME280;44529;47.464;19.014;2023-01-26T06:05:54;100811.56;;;2.72;87.08
58761;BME280;44529;47.464;19.014;2023-01-26T06:08:57;100811.56;;;2.72;86.96
58761;BME280;44529;47.464;19.014;2023-01-26T06:12:18;100804.53;;;2.66;87.35
58761;BME280;44529;47.464;19.014;2023-01-26T06:15:21;100802.97;;;2.70;86.44
58761;BME280;44529;47.464;19.014;2023-01-26T06:18:25;100800.81;;;2.67;86.74
58761;BME280;44529;47.464;19.014;2023-01-26T06:21:30;100799.84;;;2.73;85.17
58761;BME280;44529;47.464;19.014;2023-01-26T06:24:33;100797.72;;;2.75;85.16
58761;BME280;44529;47.464;19.014;2023-01-26T06:27:36;100803.31;;;2.74;83.89
58761;BME280;44529;47.464;19.014;2023-01-26T06:30:43;100808.28;;;2.65;83.71
58761;BME280;44529;47.464;19.014;2023-01-26T06:33:46;100802.97;;;2.70;82.74
58761;BME280;44529;47.464;19.014;2023-01-26T06:36:49;100803.31;;;2.74;82.10
58761;BME280;44529;47.464;19.014;2023-01-26T06:39:52;100798.22;;;2.72;82.14
58761;BME280;44529;47.464;19.014;2023-01-26T06:42:54;100800.31;;;2.70;81.75
58761;BME280;44529;47.464;19.014;2023-01-26T06:45:57;100802.53;;;2.56;83.22
58761;BME280;44529;47.464;19.014;2023-01-26T06:49:01;100796.00;;;2.47;83.46
58761;BME280;44529;47.464;19.014;2023-01-26T06:52:21;100801.97;;;2.54;83.49
58761;BME280;44529;47.464;19.014;2023-01-26T06:55:36;100794.22;;;2.53;83.85
58761;BME280;44529;47.464;19.014;2023-01-26T06:58:42;100795.91;;;2.59;83.40
58761;BME280;44529;47.464;19.014;2023-01-26T07:01:47;100792.56;;;2.68;83.17
58761;BME280;44529;47.464;19.014;2023-01-26T07:04:51;100796.53;;;2.66;82.42
58761;BME280;44529;47.464;19.014;2023-01-26T07:07:54;100789.09;;;2.51;83.80
58761;BME280;44529;47.464;19.014;2023-01-26T07:10:56;100793.63;;;2.51;84.06
58761;BME280;44529;47.464;19.014;2023-01-26T07:13:58;100788.06;;;2.35;84.41
58761;BME280;44529;47.464;19.014;2023-01-26T07:17:01;100790.66;;;2.30;83.34
58761;BME280;44529;47.464;19.014;2023-01-26T07:20:05;100787.25;;;2.18;83.42
58761;BME280;44529;47.464;19.014;2023-01-26T07:23:07;100784.84;;;2.16;83.70
58761;BME280;44529;47.464;19.014;2023-01-26T07:26:10;100787.34;;;2.23;83.34
58761;BME280;44529;47.464;19.014;2023-01-26T07:29:12;100784.59;;;2.35;83.62
58761;BME280;44529;47.464;19.014;2023-01-26T07:32:15;100784.84;;;2.33;83.97
58761;BME280;44529;47.464;19.014;2023-01-26T07:35:18;100775.22;;;2.32;85.04
58761;BME280;44529;47.464;19.014;2023-01-26T07:38:21;100767.84;;;2.39;84.08
58761;BME280;44529;47.464;19.014;2023-01-26T07:41:23;100768.59;;;2.35;84.05
58761;BME280;44529;47.464;19.014;2023-01-26T07:44:25;100764.69;;;2.42;84.09
58761;BME280;44529;47.464;19.014;2023-01-26T07:47:27;100761.03;;;2.49;84.77
58761;BME280;44529;47.464;19.014;2023-01-26T07:50:30;100764.50;;;2.49;84.05
58761;BME280;44529;47.464;19.014;2023-01-26T07:53:33;100771.28;;;2.57;83.50
58761;BME280;44529;47.464;19.014;2023-01-26T07:56:40;100775.25;;;2.71;80.73
58761;BME280;44529;47.464;19.014;2023-01-26T07:59:42;100772.97;;;2.63;81.98
58761;BME280;44529;47.464;19.014;2023-01-26T08:02:49;100770.56;;;2.61;80.07
58761;BME280;44529;47.464;19.014;2023-01-26T08:05:51;100772.59;;;2.71;79.34
58761;BME280;44529;47.464;19.014;2023-01-26T08:08:54;100773.69;;;2.75;78.42
58761;BME280;44529;47.464;19.014;2023-01-26T08:11:57;100771.66;;;2.82;78.11
58761;BME280;44529;47.464;19.014;2023-01-26T08:15:00;100770.84;;;2.82;78.21
58761;BME280;44529;47.464;19.014;2023-01-26T08:18:03;100774.66;;;2.86;78.24
58761;BME280;44529;47.464;19.014;2023-01-26T08:21:06;100771.72;;;2.87;78.34
58761;BME280;44529;47.464;19.014;2023-01-26T08:24:12;100764.31;;;2.72;79.60
58761;BME280;44529;47.464;19.014;2023-01-26T08:27:14;100768.69;;;2.62;79.63
58761;BME280;44529;47.464;19.014;2023-01-26T08:30:18;100769.41;;;2.74;80.23
58761;BME280;44529;47.464;19.014;2023-01-26T08:33:21;100762.03;;;2.81;79.81
58761;BME280;44529;47.464;19.014;2023-01-26T08:36:24;100773.63;;;2.70;80.02
58761;BME280;44529;47.464;19.014;2023-01-26T08:39:26;100771.03;;;2.75;79.51
58761;BME280;44529;47.464;19.014;2023-01-26T08:42:29;100773.97;;;2.57;80.27
58761;BME280;44529;47.464;19.014;2023-01-26T08:45:31;100769.03;;;2.49;79.98
58761;BME280;44529;47.464;19.014;2023-01-26T08:48:34;100769.44;;;2.57;80.01
58761;BME280;44529;47.464;19.014;2023-01-26T08:51:36;100764.97;;;2.63;79.50
58761;BME280;44529;47.464;19.014;2023-01-26T08:54:39;100763.47;;;2.50;80.15
58761;BME280;44529;47.464;19.014;2023-01-26T08:57:41;100766.28;;;2.43;81.13
58761;BME280;44529;47.464;19.014;2023-01-26T09:00:43;100767.53;;;2.36;81.77
58761;BME280;44529;47.464;19.014;2023-01-26T09:03:46;100764.50;;;2.49;82.56
58761;BME280;44529;47.464;19.014;2023-01-26T09:06:48;100768.44;;;2.63;81.23
58761;BME280;44529;47.464;19.014;2023-01-26T09:09:50;100768.78;;;2.67;81.46
58761;BME280;44529;47.464;19.014;2023-01-26T09:12:53;100766.47;;;2.76;80.79
58761;BME280;44529;47.464;19.014;2023-01-26T09:15:55;100776.69;;;2.79;79.69
58761;BME280;44529;47.464;19.014;2023-01-26T09:18:58;100769.13;;;2.92;78.88
58761;BME280;44529;47.464;19.014;2023-01-26T09:22:00;100763.63;;;2.82;78.92
58761;BME280;44529;47.464;19.014;2023-01-26T09:25:03;100766.00;;;2.79;77.98
58761;BME280;44529;47.464;19.014;2023-01-26T09:28:06;100764.69;;;2.81;79.60
58761;BME280;44529;47.464;19.014;2023-01-26T09:31:10;100758.91;;;2.89;78.48
58761;BME280;44529;47.464;19.014;2023-01-26T09:34:12;100758.50;;;2.97;78.25
58761;BME280;44529;47.464;19.014;2023-01-26T09:37:15;100758.31;;;3.04;75.86
58761;BME280;44529;47.464;19.014;2023-01-26T09:40:28;100758.63;;;3.08;77.17
58761;BME280;44529;47.464;19.014;2023-01-26T09:47:05;100753.28;;;3.08;77.94
58761;BME280;44529;47.464;19.014;2023-01-26T09:50:16;100749.00;;;3.07;78.03
58761;BME280;44529;47.464;19.014;2023-01-26T09:53:39;100734.03;;;3.06;78.04
58761;BME280;44529;47.464;19.014;2023-01-26T09:56:42;100733.50;;;3.09;77.72
58761;BME280;44529;47.464;19.014;2023-01-26T10:00:04;100738.84;;;3.09;78.52
58761;BME280;44529;47.464;19.014;2023-01-26T10:06:25;100723.16;;;3.12;76.94
58761;BME280;44529;47.464;19.014;2023-01-26T10:09:36;100714.31;;;3.12;77.12
58761;BME280;44529;47.464;19.014;2023-01-26T10:12:39;100723.94;;;3.13;77.34
58761;BME280;44529;47.464;19.014;2023-01-26T10:15:46;100711.19;;;3.20;75.81
58761;BME280;44529;47.464;19.014;2023-01-26T10:18:58;100708.03;;;3.23;76.66
58761;BME280;44529;47.464;19.014;2023-01-26T10:22:09;100706.47;;;3.27;76.30
58761;BME280;44529;47.464;19.014;2023-01-26T10:25:23;100707.72;;;3.19;76.15
58761;BME280;44529;47.464;19.014;2023-01-26T10:28:32;100697.78;;;3.15;76.95
58761;BME280;44529;47.464;19.014;2023-01-26T10:31:38;100698.78;;;3.09;77.85
58761;BME280;44529;47.464;19.014;2023-01-26T10:34:40;100682.31;;;3.17;78.24
58761;BME280;44529;47.464;19.014;2023-01-26T10:37:43;100682.41;;;3.27;76.43
58761;BME280;44529;47.464;19.014;2023-01-26T10:40:47;100685.34;;;3.25;77.66
58761;BME280;44529;47.464;19.014;2023-01-26T10:47:14;100676.53;;;3.25;76.62
58761;BME280;44529;47.464;19.014;2023-01-26T10:50:23;100679.69;;;3.22;76.44
58761;BME280;44529;47.464;19.014;2023-01-26T10:53:27;100673.84;;;3.25;76.98
58761;BME280;44529;47.464;19.014;2023-01-26T10:56:33;100677.53;;;3.19;77.07
58761;BME280;44529;47.464;19.014;2023-01-26T11:00:03;100667.97;;;3.23;76.38
58761;BME280;44529;47.464;19.014;2023-01-26T11:03:17;100658.38;;;3.27;76.53
58761;BME280;44529;47.464;19.014;2023-01-26T11:06:26;100661.81;;;3.22;75.86
58761;BME280;44529;47.464;19.014;2023-01-26T11:09:29;100655.41;;;3.23;77.09
58761;BME280;44529;47.464;19.014;2023-01-26T11:12:32;100651.16;;;3.28;76.18
58761;BME280;44529;47.464;19.014;2023-01-26T11:15:38;100655.09;;;3.20;76.53
58761;BME280;44529;47.464;19.014;2023-01-26T11:19:00;100651.88;;;3.18;76.67
58761;BME280;44529;47.464;19.014;2023-01-26T11:22:05;100640.37;;;3.17;77.16
58761;BME280;44529;47.464;19.014;2023-01-26T11:25:40;100634.13;;;3.07;77.60
58761;BME280;44529;47.464;19.014;2023-01-26T11:32:55;100625.84;;;3.08;77.27
58761;BME280;44529;47.464;19.014;2023-01-26T11:36:17;100629.97;;;3.21;76.70
58761;BME280;44529;47.464;19.014;2023-01-26T11:39:46;100634.63;;;3.04;77.19
58761;BME280;44529;47.464;19.014;2023-01-26T11:46:28;100617.69;;;3.20;77.89
58761;BME280;44529;47.464;19.014;2023-01-26T11:56:27;100603.25;;;3.21;78.25
58761;BME280;44529;47.464;19.014;2023-01-26T11:59:41;100596.31;;;3.20;78.13
58761;BME280;44529;47.464;19.014;2023-01-26T12:02:53;100592.06;;;3.24;77.75
58761;BME280;44529;47.464;19.014;2023-01-26T12:06:07;100583.22;;;3.18;79.15
58761;BME280;44529;47.464;19.014;2023-01-26T12:09:20;100576.97;;;3.08;78.70
58761;BME280;44529;47.464;19.014;2023-01-26T12:12:40;100571.97;;;3.16;79.11
58761;BME280;44529;47.464;19.014;2023-01-26T12:15:51;100566.59;;;3.11;77.47
58761;BME280;44529;47.464;19.014;2023-01-26T12:19:12;100572.59;;;2.96;78.93
58761;BME280;44529;47.464;19.014;2023-01-26T12:22:26;100561.41;;;2.99;79.46
58761;BME280;44529;47.464;19.014;2023-01-26T12:25:39;100567.81;;;2.98;79.71
58761;BME280;44529;47.464;19.014;2023-01-26T12:28:52;100563.53;;;3.03;80.05
58761;BME280;44529;47.464;19.014;2023-01-26T12:32:04;100566.37;;;3.18;79.87
58761;BME280;44529;47.464;19.014;2023-01-26T12:35:10;100561.25;;;3.11;79.94
58761;BME280;44529;47.464;19.014;2023-01-26T12:42:12;100555.75;;;2.96;80.31
58761;BME280;44529;47.464;19.014;2023-01-26T12:45:28;100549.66;;;3.01;80.27
58761;BME280;44529;47.464;19.014;2023-01-26T12:48:38;100542.59;;;3.16;80.17
58761;BME280;44529;47.464;19.014;2023-01-26T12:51:49;100539.06;;;3.11;79.99
58761;BME280;44529;47.464;19.014;2023-01-26T12:58:28;100543.25;;;3.02;81.02
58761;BME280;44529;47.464;19.014;2023-01-26T13:01:38;100536.88;;;3.08;81.02
58761;BME280;44529;47.464;19.014;2023-01-26T13:04:42;100528.59;;;3.04;80.22
58761;BME280;44529;47.464;19.014;2023-01-26T13:07:48;100534.22;;;3.08;79.83
58761;BME280;44529;47.464;19.014;2023-01-26T13:10:51;100534.25;;;3.13;78.94
58761;BME280;44529;47.464;19.014;2023-01-26T13:13:55;100529.19;;;3.11;79.92
58761;BME280;44529;47.464;19.014;2023-01-26T13:26:43;100521.34;;;2.99;80.34
58761;BME280;44529;47.464;19.014;2023-01-26T13:29:53;100522.66;;;2.97;81.15
58761;BME280;44529;47.464;19.014;2023-01-26T13:33:20;100517.66;;;3.06;80.91
58761;BME280;44529;47.464;19.014;2023-01-26T13:36:27;100520.62;;;3.14;80.46
58761;BME280;44529;47.464;19.014;2023-01-26T13:39:34;100525.88;;;2.99;80.89
58761;BME280;44529;47.464;19.014;2023-01-26T13:42:50;100526.66;;;2.99;80.81
58761;BME280;44529;47.464;19.014;2023-01-26T13:49:22;100521.28;;;2.94;81.74
58761;BME280;44529;47.464;19.014;2023-01-26T13:52:26;100526.13;;;2.97;81.22
58761;BME280;44529;47.464;19.014;2023-01-26T13:55:30;100530.34;;;2.93;82.03
58761;BME280;44529;47.464;19.014;2023-01-26T13:58:33;100524.16;;;2.88;82.67
58761;BME280;44529;47.464;19.014;2023-01-26T14:04:51;100512.72;;;2.92;82.90
58761;BME280;44529;47.464;19.014;2023-01-26T14:07:54;100516.53;;;3.02;83.16
58761;BME280;44529;47.464;19.014;2023-01-26T14:10:58;100517.06;;;2.98;83.59
58761;BME280;44529;47.464;19.014;2023-01-26T14:14:02;100509.00;;;2.93;83.92
58761;BME280;44529;47.464;19.014;2023-01-26T14:17:07;100517.06;;;2.98;83.00
58761;BME280;44529;47.464;19.014;2023-01-26T14:20:34;100516.47;;;2.91;83.84
58761;BME280;44529;47.464;19.014;2023-01-26T14:23:37;100514.38;;;2.98;84.69
58761;BME280;44529;47.464;19.014;2023-01-26T14:26:39;100521.22;;;2.89;85.29
58761;BME280;44529;47.464;19.014;2023-01-26T14:29:43;100523.06;;;2.84;85.72
58761;BME280;44529;47.464;19.014;2023-01-26T14:32:46;100514.22;;;2.78;86.01
58761;BME280;44529;47.464;19.014;2023-01-26T14:35:59;100516.56;;;2.75;86.46
58761;BME280;44529;47.464;19.014;2023-01-26T14:39:17;100522.16;;;2.73;86.95
58761;BME280;44529;47.464;19.014;2023-01-26T14:42:21;100511.75;;;2.71;87.81
58761;BME280;44529;47.464;19.014;2023-01-26T14:45:29;100510.72;;;2.78;87.24
58761;BME280;44529;47.464;19.014;2023-01-26T14:49:06;100512.59;;;2.77;87.25
58761;BME280;44529;47.464;19.014;2023-01-26T14:52:23;100504.31;;;2.79;86.34
58761;BME280;44529;47.464;19.014;2023-01-26T14:55:29;100511.56;;;2.83;86.46
58761;BME280;44529;47.464;19.014;2023-01-26T14:58:32;100507.81;;;2.79;86.47
58761;BME280;44529;47.464;19.014;2023-01-26T15:01:35;100511.28;;;2.80;85.88
58761;BME280;44529;47.464;19.014;2023-01-26T15:04:38;100506.69;;;2.75;86.83
58761;BME280;44529;47.464;19.014;2023-01-26T15:14:46;100509.66;;;2.79;86.61
58761;BME280;44529;47.464;19.014;2023-01-26T15:21:14;100512.72;;;2.92;85.47
58761;BME280;44529;47.464;19.014;2023-01-26T15:24:17;100517.94;;;2.77;85.59
58761;BME280;44529;47.464;19.014;2023-01-26T15:27:22;100514.00;;;2.85;85.96
58761;BME280;44529;47.464;19.014;2023-01-26T15:36:50;100512.94;;;2.59;86.83
58761;BME280;44529;47.464;19.014;2023-01-26T15:39:53;100512.50;;;2.67;86.46
58761;BME280;44529;47.464;19.014;2023-01-26T15:43:14;100515.63;;;2.59;86.54
58761;BME280;44529;47.464;19.014;2023-01-26T15:46:17;100508.44;;;2.37;86.25
58761;BME280;44529;47.464;19.014;2023-01-26T15:49:19;100501.00;;;2.39;85.70
58761;BME280;44529;47.464;19.014;2023-01-26T15:52:26;100506.62;;;2.43;86.26
58761;BME280;44529;47.464;19.014;2023-01-26T15:55:32;100510.69;;;2.46;85.21
58761;BME280;44529;47.464;19.014;2023-01-26T15:58:35;100520.84;;;2.49;84.13
58761;BME280;44529;47.464;19.014;2023-01-26T16:01:39;100522.03;;;2.36;82.53
58761;BME280;44529;47.464;19.014;2023-01-26T16:04:42;100515.41;;;2.38;81.88
58761;BME280;44529;47.464;19.014;2023-01-26T16:07:45;100531.44;;;2.43;80.70
58761;BME280;44529;47.464;19.014;2023-01-26T16:10:48;100519.72;;;2.44;81.47
58761;BME280;44529;47.464;19.014;2023-01-26T16:13:52;100519.72;;;2.44;80.90
58761;BME280;44529;47.464;19.014;2023-01-26T16:17:12;100519.97;;;2.43;79.69
58761;BME280;44529;47.464;19.014;2023-01-26T16:20:15;100514.09;;;2.41;77.23
58761;BME280;44529;47.464;19.014;2023-01-26T16:23:25;100516.03;;;2.46;78.01
58761;BME280;44529;47.464;19.014;2023-01-26T16:26:29;100515.22;;;2.45;74.53
58761;BME280;44529;47.464;19.014;2023-01-26T16:29:32;100515.50;;;2.49;75.54
58761;BME280;44529;47.464;19.014;2023-01-26T16:32:35;100516.09;;;2.56;76.15
58761;BME280;44529;47.464;19.014;2023-01-26T16:35:38;100523.84;;;2.52;75.31
58761;BME280;44529;47.464;19.014;2023-01-26T16:38:40;100517.06;;;2.44;74.55
58761;BME280;44529;47.464;19.014;2023-01-26T16:41:43;100518.44;;;2.47;73.25
58761;BME280;44529;47.464;19.014;2023-01-26T16:44:46;100520.50;;;2.40;71.30
58761;BME280;44529;47.464;19.014;2023-01-26T16:47:54;100519.63;;;2.34;72.54
58761;BME280;44529;47.464;19.014;2023-01-26T16:50:57;100515.91;;;2.35;72.64
58761;BME280;44529;47.464;19.014;2023-01-26T16:53:59;100511.44;;;2.41;72.56
58761;BME280;44529;47.464;19.014;2023-01-26T16:57:02;100511.16;;;2.42;71.10
58761;BME280;44529;47.464;19.014;2023-01-26T17:00:05;100507.50;;;2.49;71.73
58761;BME280;44529;47.464;19.014;2023-01-26T17:03:10;100508.56;;;2.48;70.60
58761;BME280;44529;47.464;19.014;2023-01-26T17:06:15;100505.56;;;2.44;71.73
58761;BME280;44529;47.464;19.014;2023-01-26T17:09:18;100503.41;;;2.41;71.95
58761;BME280;44529;47.464;19.014;2023-01-26T17:12:22;100501.56;;;2.41;73.49
58761;BME280;44529;47.464;19.014;2023-01-26T17:15:24;100491.94;;;2.40;71.20
58761;BME280;44529;47.464;19.014;2023-01-26T17:18:29;100493.16;;;2.55;72.22
58761;BME280;44529;47.464;19.014;2023-01-26T17:21:34;100503.50;;;2.51;71.95
58761;BME280;44529;47.464;19.014;2023-01-26T17:24:37;100497.56;;;2.44;74.08